Main page
METAR-TAF:

METAR-TAF

Airports :

RAF Valley

Valley, Wales

latitude: 53-15N, longitude: 004-32W, elevation: 1 m

Current weather observation

The report was made 47 minutes ago, at 18:50 UTC
Wind 13 kt from the Southwest
Temperature 9°C
Humidity 93%
Pressure 1021 hPa
Visibility 10 km or more

METAR: EGOV 291850Z AUTO 22013KT 9999 BKN029/// SCT049/// 09/08 Q1021

Time: 19:37 (19:37 UTC)


TAF: missing

Weather observations and forecasts of more than 4000 airports (METAR and TAF reports).

The available stations are represented by yellow and red dots on the map.

Hover mouse over dot to see the name of the station.

Then click to see weather observations and forecasts.

To change the map : click on the green buttons with a black cross to zoom in, on the green button with a dash to zoom out, or on the green arrows for adjacent maps.


METAR-TAF: